sensor_id;sensor_type;location;lat;lon;timestamp;temperature;humidity
31733;DHT22;18312;51.486;7.144;2023-02-28T00:00:07;-0.90;99.90
31733;DHT22;18312;51.486;7.144;2023-02-28T00:02:35;-0.80;99.90
31733;DHT22;18312;51.486;7.144;2023-02-28T00:05:02;-0.80;99.90
31733;DHT22;18312;51.486;7.144;2023-02-28T00:07:29;-0.70;99.90
31733;DHT22;18312;51.486;7.144;2023-02-28T00:09:57;-0.50;99.90
31733;DHT22;18312;51.486;7.144;2023-02-28T00:12:24;-0.20;99.90
31733;DHT22;18312;51.486;7.144;2023-02-28T00:14:51;0.00;99.90
31733;DHT22;18312;51.486;7.144;2023-02-28T00:17:17;0.10;99.90
31733;DHT22;18312;51.486;7.144;2023-02-28T00:19:46;0.00;99.90
31733;DHT22;18312;51.486;7.144;2023-02-28T00:22:13;0.10;99.90
31733;DHT22;18312;51.486;7.144;2023-02-28T00:24:39;0.00;99.90
31733;DHT22;18312;51.486;7.144;2023-02-28T00:27:07;0.00;99.90
31733;DHT22;18312;51.486;7.144;2023-02-28T00:29:34;-0.10;99.90
31733;DHT22;18312;51.486;7.144;2023-02-28T00:32:00;-0.20;99.90
31733;DHT22;18312;51.486;7.144;2023-02-28T00:34:27;-0.30;99.90
31733;DHT22;18312;51.486;7.144;2023-02-28T00:36:53;-0.40;99.90
31733;DHT22;18312;51.486;7.144;2023-02-28T00:39:20;-0.50;99.90
31733;DHT22;18312;51.486;7.144;2023-02-28T00:41:47;-0.50;99.90
31733;DHT22;18312;51.486;7.144;2023-02-28T00:44:14;-0.60;99.90
31733;DHT22;18312;51.486;7.144;2023-02-28T00:46:41;-0.70;99.90
31733;DHT22;18312;51.486;7.144;2023-02-28T00:49:08;-0.80;99.90
31733;DHT22;18312;51.486;7.144;2023-02-28T00:51:34;-0.70;99.90
31733;DHT22;18312;51.486;7.144;2023-02-28T00:54:01;-0.80;99.90
31733;DHT22;18312;51.486;7.144;2023-02-28T00:56:27;-0.80;99.90
31733;DHT22;18312;51.486;7.144;2023-02-28T00:58:54;-0.80;99.90
31733;DHT22;18312;51.486;7.144;2023-02-28T01:01:22;-0.90;99.90
31733;DHT22;18312;51.486;7.144;2023-02-28T01:03:48;-0.90;99.90
31733;DHT22;18312;51.486;7.144;2023-02-28T01:06:15;-1.10;99.90
31733;DHT22;18312;51.486;7.144;2023-02-28T01:08:42;-1.20;99.90
31733;DHT22;18312;51.486;7.144;2023-02-28T01:11:08;-1.30;99.90
31733;DHT22;18312;51.486;7.144;2023-02-28T01:13:35;-1.20;99.90
31733;DHT22;18312;51.486;7.144;2023-02-28T01:16:02;-1.30;99.90
31733;DHT22;18312;51.486;7.144;2023-02-28T01:18:30;-1.30;99.90
31733;DHT22;18312;51.486;7.144;2023-02-28T01:20:57;-1.30;99.90
31733;DHT22;18312;51.486;7.144;2023-02-28T01:23:23;-1.20;99.90
31733;DHT22;18312;51.486;7.144;2023-02-28T01:25:50;-1.30;99.90
31733;DHT22;18312;51.486;7.144;2023-02-28T01:28:16;-1.30;99.90
31733;DHT22;18312;51.486;7.144;2023-02-28T01:30:46;-1.40;99.90
31733;DHT22;18312;51.486;7.144;2023-02-28T01:33:13;-1.30;99.90
31733;DHT22;18312;51.486;7.144;2023-02-28T01:35:41;-1.40;99.90
31733;DHT22;18312;51.486;7.144;2023-02-28T01:38:07;-1.50;99.90
31733;DHT22;18312;51.486;7.144;2023-02-28T01:40:34;-1.70;99.90
31733;DHT22;18312;51.486;7.144;2023-02-28T01:43:00;-1.70;99.90
31733;DHT22;18312;51.486;7.144;2023-02-28T01:45:27;-1.80;99.90
31733;DHT22;18312;51.486;7.144;2023-02-28T01:47:55;-1.80;99.90
31733;DHT22;18312;51.486;7.144;2023-02-28T01:50:25;-2.00;99.90
31733;DHT22;18312;51.486;7.144;2023-02-28T01:52:54;-2.20;99.90
31733;DHT22;18312;51.486;7.144;2023-02-28T01:55:22;-2.30;99.90
31733;DHT22;18312;51.486;7.144;2023-02-28T01:57:50;-2.40;99.90
31733;DHT22;18312;51.486;7.144;2023-02-28T02:00:18;-2.50;99.90
31733;DHT22;18312;51.486;7.144;2023-02-28T02:02:46;-2.50;99.90
31733;DHT22;18312;51.486;7.144;2023-02-28T02:05:14;-2.50;99.90
31733;DHT22;18312;51.486;7.144;2023-02-28T02:07:41;-2.60;99.90
31733;DHT22;18312;51.486;7.144;2023-02-28T02:10:12;-2.60;99.90
31733;DHT22;18312;51.486;7.144;2023-02-28T02:12:44;-2.70;99.90
31733;DHT22;18312;51.486;7.144;2023-02-28T02:15:14;-2.60;99.90
31733;DHT22;18312;51.486;7.144;2023-02-28T02:17:43;-2.70;99.90
31733;DHT22;18312;51.486;7.144;2023-02-28T02:23:12;-2.70;99.90
31733;DHT22;18312;51.486;7.144;2023-02-28T02:25:46;-2.60;99.90
31733;DHT22;18312;51.486;7.144;2023-02-28T02:28:20;-2.50;99.90
31733;DHT22;18312;51.486;7.144;2023-02-28T02:30:57;-2.40;99.90
31733;DHT22;18312;51.486;7.144;2023-02-28T02:33:32;-2.40;99.90
31733;DHT22;18312;51.486;7.144;2023-02-28T02:36:06;-2.60;99.90
31733;DHT22;18312;51.486;7.144;2023-02-28T02:38:36;-2.60;99.90
31733;DHT22;18312;51.486;7.144;2023-02-28T02:41:06;-2.70;99.90
31733;DHT22;18312;51.486;7.144;2023-02-28T02:43:35;-2.80;99.90
31733;DHT22;18312;51.486;7.144;2023-02-28T02:46:04;-2.80;99.90
31733;DHT22;18312;51.486;7.144;2023-02-28T02:48:33;-2.80;99.90
31733;DHT22;18312;51.486;7.144;2023-02-28T02:51:00;-2.90;99.90
31733;DHT22;18312;51.486;7.144;2023-02-28T02:53:29;-3.00;99.90
31733;DHT22;18312;51.486;7.144;2023-02-28T02:55:56;-3.00;99.90
31733;DHT22;18312;51.486;7.144;2023-02-28T02:58:24;-3.00;99.90
31733;DHT22;18312;51.486;7.144;2023-02-28T03:00:52;-3.00;99.90
31733;DHT22;18312;51.486;7.144;2023-02-28T03:03:19;-3.00;99.90
31733;DHT22;18312;51.486;7.144;2023-02-28T03:05:54;-3.00;99.90
31733;DHT22;18312;51.486;7.144;2023-02-28T03:08:21;-3.00;99.90
31733;DHT22;18312;51.486;7.144;2023-02-28T03:10:50;-3.00;99.90
31733;DHT22;18312;51.486;7.144;2023-02-28T03:13:22;-3.00;99.90
31733;DHT22;18312;51.486;7.144;2023-02-28T03:15:55;-3.00;99.90
31733;DHT22;18312;51.486;7.144;2023-02-28T03:18:24;-3.00;99.90
31733;DHT22;18312;51.486;7.144;2023-02-28T03:20:57;-2.90;99.90
31733;DHT22;18312;51.486;7.144;2023-02-28T03:23:29;-2.90;99.90
31733;DHT22;18312;51.486;7.144;2023-02-28T03:26:01;-2.80;99.90
31733;DHT22;18312;51.486;7.144;2023-02-28T03:28:31;-2.80;99.90
31733;DHT22;18312;51.486;7.144;2023-02-28T03:30:59;-2.90;99.90
31733;DHT22;18312;51.486;7.144;2023-02-28T03:33:28;-2.90;99.90
31733;DHT22;18312;51.486;7.144;2023-02-28T03:35:57;-2.90;99.90
31733;DHT22;18312;51.486;7.144;2023-02-28T03:38:26;-2.90;99.90
31733;DHT22;18312;51.486;7.144;2023-02-28T03:40:55;-3.00;99.90
31733;DHT22;18312;51.486;7.144;2023-02-28T03:43:27;-3.10;99.90
31733;DHT22;18312;51.486;7.144;2023-02-28T03:45:54;-3.00;99.90
31733;DHT22;18312;51.486;7.144;2023-02-28T03:48:24;-3.10;99.90
31733;DHT22;18312;51.486;7.144;2023-02-28T03:50:53;-3.20;99.90
31733;DHT22;18312;51.486;7.144;2023-02-28T03:53:21;-3.20;99.90
31733;DHT22;18312;51.486;7.144;2023-02-28T03:55:49;-3.30;99.90
31733;DHT22;18312;51.486;7.144;2023-02-28T03:58:18;-3.30;99.90
31733;DHT22;18312;51.486;7.144;2023-02-28T04:00:49;-3.40;99.90
31733;DHT22;18312;51.486;7.144;2023-02-28T04:03:17;-3.40;99.90
31733;DHT22;18312;51.486;7.144;2023-02-28T04:05:46;-3.40;99.90
31733;DHT22;18312;51.486;7.144;2023-02-28T04:08:14;-3.30;99.90
31733;DHT22;18312;51.486;7.144;2023-02-28T04:10:40;-3.20;99.90
31733;DHT22;18312;51.486;7.144;2023-02-28T04:13:08;-3.20;99.90
31733;DHT22;18312;51.486;7.144;2023-02-28T04:15:35;-3.20;99.90
31733;DHT22;18312;51.486;7.144;2023-02-28T04:18:03;-3.20;99.90
31733;DHT22;18312;51.486;7.144;2023-02-28T04:20:30;-3.20;99.90
31733;DHT22;18312;51.486;7.144;2023-02-28T04:22:56;-3.20;99.90
31733;DHT22;18312;51.486;7.144;2023-02-28T04:25:23;-3.20;99.90
31733;DHT22;18312;51.486;7.144;2023-02-28T04:27:50;-3.20;99.90
31733;DHT22;18312;51.486;7.144;2023-02-28T04:30:17;-3.10;99.90
31733;DHT22;18312;51.486;7.144;2023-02-28T04:32:43;-3.00;99.90
31733;DHT22;18312;51.486;7.144;2023-02-28T04:35:11;-3.00;99.90
31733;DHT22;18312;51.486;7.144;2023-02-28T04:37:38;-3.20;99.90
31733;DHT22;18312;51.486;7.144;2023-02-28T04:40:05;-3.10;99.90
31733;DHT22;18312;51.486;7.144;2023-02-28T04:42:32;-3.00;99.90
31733;DHT22;18312;51.486;7.144;2023-02-28T04:45:01;-3.00;99.90
31733;DHT22;18312;51.486;7.144;2023-02-28T04:47:28;-3.20;99.90
31733;DHT22;18312;51.486;7.144;2023-02-28T04:49:54;-3.20;99.90
31733;DHT22;18312;51.486;7.144;2023-02-28T04:52:22;-3.30;99.90
31733;DHT22;18312;51.486;7.144;2023-02-28T04:54:49;-3.10;99.90
31733;DHT22;18312;51.486;7.144;2023-02-28T04:57:16;-3.20;99.90
31733;DHT22;18312;51.486;7.144;2023-02-28T04:59:42;-3.40;99.90
31733;DHT22;18312;51.486;7.144;2023-02-28T05:02:09;-3.40;99.90
31733;DHT22;18312;51.486;7.144;2023-02-28T05:04:36;-3.50;99.90
31733;DHT22;18312;51.486;7.144;2023-02-28T05:07:02;-3.60;99.90
31733;DHT22;18312;51.486;7.144;2023-02-28T05:09:31;-3.70;99.90
31733;DHT22;18312;51.486;7.144;2023-02-28T05:11:58;-3.70;99.90
31733;DHT22;18312;51.486;7.144;2023-02-28T05:14:38;-3.80;99.90
31733;DHT22;18312;51.486;7.144;2023-02-28T05:17:05;-3.80;99.90
31733;DHT22;18312;51.486;7.144;2023-02-28T05:19:32;-3.90;99.90
31733;DHT22;18312;51.486;7.144;2023-02-28T05:21:58;-3.90;99.90
31733;DHT22;18312;51.486;7.144;2023-02-28T05:24:25;-3.90;99.90
31733;DHT22;18312;51.486;7.144;2023-02-28T05:26:53;-3.90;99.90
31733;DHT22;18312;51.486;7.144;2023-02-28T05:29:20;-4.10;99.90
31733;DHT22;18312;51.486;7.144;2023-02-28T05:31:47;-4.10;99.90
31733;DHT22;18312;51.486;7.144;2023-02-28T05:34:14;-4.10;99.90
31733;DHT22;18312;51.486;7.144;2023-02-28T05:36:41;-4.10;99.90
31733;DHT22;18312;51.486;7.144;2023-02-28T05:39:08;-4.10;99.90
31733;DHT22;18312;51.486;7.144;2023-02-28T05:41:38;-4.00;99.90
31733;DHT22;18312;51.486;7.144;2023-02-28T05:44:07;-4.10;99.90
31733;DHT22;18312;51.486;7.144;2023-02-28T05:46:34;-4.10;99.90
31733;DHT22;18312;51.486;7.144;2023-02-28T05:49:00;-4.10;99.90
31733;DHT22;18312;51.486;7.144;2023-02-28T05:51:31;-4.10;99.90
31733;DHT22;18312;51.486;7.144;2023-02-28T05:53:59;-4.00;99.90
31733;DHT22;18312;51.486;7.144;2023-02-28T05:56:28;-4.10;99.90
31733;DHT22;18312;51.486;7.144;2023-02-28T05:58:55;-4.00;99.90
31733;DHT22;18312;51.486;7.144;2023-02-28T06:01:26;-4.00;99.90
31733;DHT22;18312;51.486;7.144;2023-02-28T06:04:05;-4.10;99.90
31733;DHT22;18312;51.486;7.144;2023-02-28T06:06:49;-4.10;99.90
31733;DHT22;18312;51.486;7.144;2023-02-28T06:09:35;-4.00;99.90
31733;DHT22;18312;51.486;7.144;2023-02-28T06:15:12;-4.20;99.90
31733;DHT22;18312;51.486;7.144;2023-02-28T06:17:51;-4.10;99.90
31733;DHT22;18312;51.486;7.144;2023-02-28T06:20:18;-4.10;99.90
31733;DHT22;18312;51.486;7.144;2023-02-28T06:22:47;-4.10;99.90
31733;DHT22;18312;51.486;7.144;2023-02-28T06:25:27;-4.10;99.90
31733;DHT22;18312;51.486;7.144;2023-02-28T06:30:30;-4.10;99.90
31733;DHT22;18312;51.486;7.144;2023-02-28T06:33:03;-4.10;99.90
31733;DHT22;18312;51.486;7.144;2023-02-28T06:35:33;-4.20;99.90
31733;DHT22;18312;51.486;7.144;2023-02-28T06:38:05;-4.20;99.90
31733;DHT22;18312;51.486;7.144;2023-02-28T06:40:48;-4.30;99.90
31733;DHT22;18312;51.486;7.144;2023-02-28T06:43:22;-4.40;99.90
31733;DHT22;18312;51.486;7.144;2023-02-28T06:45:50;-4.30;99.90
31733;DHT22;18312;51.486;7.144;2023-02-28T06:48:19;-4.30;99.90
31733;DHT22;18312;51.486;7.144;2023-02-28T06:57:09;-4.20;99.90
31733;DHT22;18312;51.486;7.144;2023-02-28T07:00:19;-4.00;99.90
31733;DHT22;18312;51.486;7.144;2023-02-28T07:02:54;-4.00;99.90
31733;DHT22;18312;51.486;7.144;2023-02-28T07:05:25;-4.00;99.90
31733;DHT22;18312;51.486;7.144;2023-02-28T07:07:52;-4.00;99.90
31733;DHT22;18312;51.486;7.144;2023-02-28T07:10:19;-3.90;99.90
31733;DHT22;18312;51.486;7.144;2023-02-28T07:12:49;-3.80;99.90
31733;DHT22;18312;51.486;7.144;2023-02-28T07:15:16;-3.70;99.90
31733;DHT22;18312;51.486;7.144;2023-02-28T07:17:43;-3.70;99.90
31733;DHT22;18312;51.486;7.144;2023-02-28T07:20:14;-3.60;99.90
31733;DHT22;18312;51.486;7.144;2023-02-28T07:22:44;-3.40;99.90
31733;DHT22;18312;51.486;7.144;2023-02-28T07:28:19;2.60;99.90
31733;DHT22;18312;51.486;7.144;2023-02-28T07:31:15;3.40;99.40
31733;DHT22;18312;51.486;7.144;2023-02-28T07:33:59;1.40;99.90
31733;DHT22;18312;51.486;7.144;2023-02-28T07:48:51;8.90;82.10
31733;DHT22;18312;51.486;7.144;2023-02-28T07:51:24;10.60;65.10
31733;DHT22;18312;51.486;7.144;2023-02-28T08:03:32;5.30;67.50
31733;DHT22;18312;51.486;7.144;2023-02-28T08:06:00;3.80;75.60
31733;DHT22;18312;51.486;7.144;2023-02-28T08:08:27;3.00;78.40
31733;DHT22;18312;51.486;7.144;2023-02-28T08:10:57;5.10;74.90
31733;DHT22;18312;51.486;7.144;2023-02-28T08:13:25;5.50;73.70
31733;DHT22;18312;51.486;7.144;2023-02-28T08:15:52;4.50;73.10
31733;DHT22;18312;51.486;7.144;2023-02-28T08:18:19;4.20;78.60
31733;DHT22;18312;51.486;7.144;2023-02-28T08:20:49;5.70;71.20
31733;DHT22;18312;51.486;7.144;2023-02-28T08:23:18;5.80;71.10
31733;DHT22;18312;51.486;7.144;2023-02-28T08:25:44;3.90;76.90
31733;DHT22;18312;51.486;7.144;2023-02-28T08:28:11;2.90;80.50
31733;DHT22;18312;51.486;7.144;2023-02-28T08:30:38;4.30;78.90
31733;DHT22;18312;51.486;7.144;2023-02-28T08:33:06;7.00;72.30
31733;DHT22;18312;51.486;7.144;2023-02-28T08:35:36;8.70;64.90
31733;DHT22;18312;51.486;7.144;2023-02-28T08:38:07;10.60;59.10
31733;DHT22;18312;51.486;7.144;2023-02-28T08:40:38;10.20;59.20
31733;DHT22;18312;51.486;7.144;2023-02-28T08:46:13;11.80;54.30
31733;DHT22;18312;51.486;7.144;2023-02-28T08:48:43;12.50;50.10
31733;DHT22;18312;51.486;7.144;2023-02-28T08:51:28;9.00;53.50
31733;DHT22;18312;51.486;7.144;2023-02-28T08:53:58;5.80;59.00
31733;DHT22;18312;51.486;7.144;2023-02-28T09:11:37;2.20;74.90
31733;DHT22;18312;51.486;7.144;2023-02-28T09:14:04;2.20;75.90
31733;DHT22;18312;51.486;7.144;2023-02-28T09:16:31;2.20;76.40
31733;DHT22;18312;51.486;7.144;2023-02-28T09:18:58;2.30;76.30
31733;DHT22;18312;51.486;7.144;2023-02-28T09:21:25;2.30;76.90
31733;DHT22;18312;51.486;7.144;2023-02-28T09:23:51;2.30;75.60
31733;DHT22;18312;51.486;7.144;2023-02-28T09:26:19;2.30;74.80
31733;DHT22;18312;51.486;7.144;2023-02-28T09:28:47;2.30;74.50
31733;DHT22;18312;51.486;7.144;2023-02-28T09:31:20;2.40;74.50
31733;DHT22;18312;51.486;7.144;2023-02-28T09:33:47;2.50;74.10
31733;DHT22;18312;51.486;7.144;2023-02-28T09:39:15;2.50;72.60
31733;DHT22;18312;51.486;7.144;2023-02-28T09:41:52;2.60;73.10
31733;DHT22;18312;51.486;7.144;2023-02-28T09:44:22;2.70;73.70
31733;DHT22;18312;51.486;7.144;2023-02-28T09:46:52;2.80;74.30
31733;DHT22;18312;51.486;7.144;2023-02-28T09:49:23;3.00;72.50
31733;DHT22;18312;51.486;7.144;2023-02-28T09:51:56;3.00;70.80
31733;DHT22;18312;51.486;7.144;2023-02-28T09:54:24;2.90;71.60
31733;DHT22;18312;51.486;7.144;2023-02-28T09:56:55;2.90;71.00
31733;DHT22;18312;51.486;7.144;2023-02-28T09:59:28;3.00;72.00
31733;DHT22;18312;51.486;7.144;2023-02-28T10:02:01;3.20;72.80
31733;DHT22;18312;51.486;7.144;2023-02-28T10:04:35;3.20;71.10
31733;DHT22;18312;51.486;7.144;2023-02-28T10:07:26;3.30;71.20
31733;DHT22;18312;51.486;7.144;2023-02-28T10:10:17;3.30;70.90
31733;DHT22;18312;51.486;7.144;2023-02-28T10:12:46;3.20;70.70
31733;DHT22;18312;51.486;7.144;2023-02-28T10:15:14;3.30;71.20
31733;DHT22;18312;51.486;7.144;2023-02-28T10:17:42;3.40;71.00
31733;DHT22;18312;51.486;7.144;2023-02-28T10:20:11;3.50;70.30
31733;DHT22;18312;51.486;7.144;2023-02-28T10:22:41;3.60;70.10
31733;DHT22;18312;51.486;7.144;2023-02-28T10:25:19;3.50;68.10
31733;DHT22;18312;51.486;7.144;2023-02-28T10:27:49;3.40;68.60
31733;DHT22;18312;51.486;7.144;2023-02-28T10:30:17;3.50;68.00
31733;DHT22;18312;51.486;7.144;2023-02-28T10:32:46;3.50;67.30
31733;DHT22;18312;51.486;7.144;2023-02-28T10:35:15;3.60;68.30
31733;DHT22;18312;51.486;7.144;2023-02-28T10:37:47;3.50;65.70
31733;DHT22;18312;51.486;7.144;2023-02-28T10:40:27;3.60;66.70
31733;DHT22;18312;51.486;7.144;2023-02-28T10:42:57;3.50;65.60
31733;DHT22;18312;51.486;7.144;2023-02-28T10:45:26;3.60;66.70
31733;DHT22;18312;51.486;7.144;2023-02-28T10:47:55;3.70;65.60
31733;DHT22;18312;51.486;7.144;2023-02-28T10:50:29;3.80;65.90
31733;DHT22;18312;51.486;7.144;2023-02-28T10:53:04;3.70;64.70
31733;DHT22;18312;51.486;7.144;2023-02-28T10:55:31;3.70;62.70
31733;DHT22;18312;51.486;7.144;2023-02-28T10:58:15;3.50;62.80
31733;DHT22;18312;51.486;7.144;2023-02-28T11:00:46;3.60;63.20
31733;DHT22;18312;51.486;7.144;2023-02-28T11:03:25;3.60;63.40
31733;DHT22;18312;51.486;7.144;2023-02-28T11:06:04;3.70;63.30
31733;DHT22;18312;51.486;7.144;2023-02-28T11:08:31;3.70;63.40
31733;DHT22;18312;51.486;7.144;2023-02-28T11:10:59;3.80;63.80
31733;DHT22;18312;51.486;7.144;2023-02-28T11:13:30;3.90;63.70
31733;DHT22;18312;51.486;7.144;2023-02-28T11:16:03;3.90;62.50
31733;DHT22;18312;51.486;7.144;2023-02-28T11:18:41;3.90;63.50
31733;DHT22;18312;51.486;7.144;2023-02-28T11:21:08;4.10;63.10
31733;DHT22;18312;51.486;7.144;2023-02-28T11:23:36;4.30;63.60
31733;DHT22;18312;51.486;7.144;2023-02-28T11:26:06;4.30;63.80
31733;DHT22;18312;51.486;7.144;2023-02-28T11:28:36;4.20;63.80
31733;DHT22;18312;51.486;7.144;2023-02-28T11:31:08;4.20;62.80
31733;DHT22;18312;51.486;7.144;2023-02-28T11:33:44;4.20;63.20
31733;DHT22;18312;51.486;7.144;2023-02-28T11:36:16;4.30;63.70
31733;DHT22;18312;51.486;7.144;2023-02-28T11:38:44;4.40;63.70
31733;DHT22;18312;51.486;7.144;2023-02-28T11:44:02;4.50;63.30
31733;DHT22;18312;51.486;7.144;2023-02-28T11:46:33;4.70;63.80
31733;DHT22;18312;51.486;7.144;2023-02-28T11:49:18;4.70;63.50
31733;DHT22;18312;51.486;7.144;2023-02-28T11:51:47;4.90;63.80
31733;DHT22;18312;51.486;7.144;2023-02-28T11:54:27;4.70;63.10
31733;DHT22;18312;51.486;7.144;2023-02-28T11:56:58;4.50;63.30
31733;DHT22;18312;51.486;7.144;2023-02-28T11:59:33;4.60;63.60
31733;DHT22;18312;51.486;7.144;2023-02-28T12:02:11;4.60;63.50
31733;DHT22;18312;51.486;7.144;2023-02-28T12:04:49;4.80;64.10
31733;DHT22;18312;51.486;7.144;2023-02-28T12:07:25;4.60;63.90
31733;DHT22;18312;51.486;7.144;2023-02-28T12:10:00;4.70;63.00
31733;DHT22;18312;51.486;7.144;2023-02-28T12:12:33;4.40;62.50
31733;DHT22;18312;51.486;7.144;2023-02-28T12:15:22;4.30;63.90
31733;DHT22;18312;51.486;7.144;2023-02-28T12:17:54;4.30;63.20
31733;DHT22;18312;51.486;7.144;2023-02-28T12:20:25;4.50;63.80
31733;DHT22;18312;51.486;7.144;2023-02-28T12:22:55;4.60;64.00
31733;DHT22;18312;51.486;7.144;2023-02-28T12:25:40;4.70;64.50
31733;DHT22;18312;51.486;7.144;2023-02-28T12:28:10;4.80;63.60
31733;DHT22;18312;51.486;7.144;2023-02-28T12:30:38;5.00;63.60
31733;DHT22;18312;51.486;7.144;2023-02-28T12:33:09;4.70;63.30
31733;DHT22;18312;51.486;7.144;2023-02-28T12:35:39;4.90;64.20
31733;DHT22;18312;51.486;7.144;2023-02-28T12:38:09;5.00;64.40
31733;DHT22;18312;51.486;7.144;2023-02-28T12:40:42;5.20;64.30
31733;DHT22;18312;51.486;7.144;2023-02-28T12:43:09;5.00;63.00
31733;DHT22;18312;51.486;7.144;2023-02-28T12:45:40;5.10;63.40
31733;DHT22;18312;51.486;7.144;2023-02-28T12:48:09;5.30;62.10
31733;DHT22;18312;51.486;7.144;2023-02-28T12:50:38;5.20;62.60
31733;DHT22;18312;51.486;7.144;2023-02-28T12:53:06;5.10;62.10
31733;DHT22;18312;51.486;7.144;2023-02-28T12:55:35;5.10;63.30
31733;DHT22;18312;51.486;7.144;2023-02-28T12:58:08;5.10;62.50
31733;DHT22;18312;51.486;7.144;2023-02-28T13:00:38;5.10;63.70
31733;DHT22;18312;51.486;7.144;2023-02-28T13:03:20;5.30;64.90
31733;DHT22;18312;51.486;7.144;2023-02-28T13:06:03;5.20;65.30
31733;DHT22;18312;51.486;7.144;2023-02-28T13:11:25;5.40;64.30
31733;DHT22;18312;51.486;7.144;2023-02-28T13:13:58;5.50;64.00
31733;DHT22;18312;51.486;7.144;2023-02-28T13:16:24;5.40;66.20
31733;DHT22;18312;51.486;7.144;2023-02-28T13:18:52;5.60;65.60
31733;DHT22;18312;51.486;7.144;2023-02-28T13:21:41;5.60;65.20
31733;DHT22;18312;51.486;7.144;2023-02-28T13:24:08;5.50;66.40
31733;DHT22;18312;51.486;7.144;2023-02-28T13:29:34;5.50;67.40
31733;DHT22;18312;51.486;7.144;2023-02-28T13:40:47;5.50;66.40
31733;DHT22;18312;51.486;7.144;2023-02-28T13:43:16;5.50;67.20
31733;DHT22;18312;51.486;7.144;2023-02-28T13:48:25;5.50;66.80
31733;DHT22;18312;51.486;7.144;2023-02-28T13:50:53;5.60;67.40
31733;DHT22;18312;51.486;7.144;2023-02-28T13:56:23;5.50;67.60
31733;DHT22;18312;51.486;7.144;2023-02-28T13:58:53;5.50;67.50
31733;DHT22;18312;51.486;7.144;2023-02-28T14:01:27;5.40;67.40
31733;DHT22;18312;51.486;7.144;2023-02-28T14:04:03;5.50;67.50
31733;DHT22;18312;51.486;7.144;2023-02-28T14:06:33;5.50;67.50
31733;DHT22;18312;51.486;7.144;2023-02-28T14:09:01;5.60;67.30
31733;DHT22;18312;51.486;7.144;2023-02-28T14:11:32;5.70;67.40
31733;DHT22;18312;51.486;7.144;2023-02-28T14:13:59;5.70;67.90
31733;DHT22;18312;51.486;7.144;2023-02-28T14:16:26;5.60;67.00
31733;DHT22;18312;51.486;7.144;2023-02-28T14:18:56;5.60;67.00
31733;DHT22;18312;51.486;7.144;2023-02-28T14:21:24;5.80;67.80
31733;DHT22;18312;51.486;7.144;2023-02-28T14:26:43;5.50;67.50
31733;DHT22;18312;51.486;7.144;2023-02-28T14:29:23;5.70;67.80
31733;DHT22;18312;51.486;7.144;2023-02-28T14:31:57;5.70;67.90
31733;DHT22;18312;51.486;7.144;2023-02-28T14:34:26;5.70;68.60
31733;DHT22;18312;51.486;7.144;2023-02-28T14:36:57;5.60;68.40
31733;DHT22;18312;51.486;7.144;2023-02-28T14:39:25;5.50;68.40
31733;DHT22;18312;51.486;7.144;2023-02-28T14:41:53;5.40;67.70
31733;DHT22;18312;51.486;7.144;2023-02-28T14:44:20;5.60;68.00
31733;DHT22;18312;51.486;7.144;2023-02-28T14:46:48;5.60;67.60
31733;DHT22;18312;51.486;7.144;2023-02-28T14:49:16;5.60;67.90
31733;DHT22;18312;51.486;7.144;2023-02-28T14:51:43;5.50;68.60
31733;DHT22;18312;51.486;7.144;2023-02-28T14:54:13;5.40;68.70
31733;DHT22;18312;51.486;7.144;2023-02-28T14:56:40;5.30;68.70
31733;DHT22;18312;51.486;7.144;2023-02-28T14:59:22;5.30;68.80
31733;DHT22;18312;51.486;7.144;2023-02-28T15:01:49;5.20;68.50
31733;DHT22;18312;51.486;7.144;2023-02-28T15:04:18;5.20;68.10
31733;DHT22;18312;51.486;7.144;2023-02-28T15:09:29;5.10;68.00
31733;DHT22;18312;51.486;7.144;2023-02-28T15:11:56;5.20;68.40
31733;DHT22;18312;51.486;7.144;2023-02-28T15:14:24;5.20;68.20
31733;DHT22;18312;51.486;7.144;2023-02-28T15:16:55;5.10;68.40
31733;DHT22;18312;51.486;7.144;2023-02-28T15:19:24;5.20;68.60
31733;DHT22;18312;51.486;7.144;2023-02-28T15:21:52;5.20;69.10
31733;DHT22;18312;51.486;7.144;2023-02-28T15:24:20;5.20;69.30
31733;DHT22;18312;51.486;7.144;2023-02-28T15:26:51;5.30;69.70
31733;DHT22;18312;51.486;7.144;2023-02-28T15:29:20;5.30;69.70
31733;DHT22;18312;51.486;7.144;2023-02-28T15:31:49;5.20;70.00
31733;DHT22;18312;51.486;7.144;2023-02-28T15:34:18;5.20;70.00
31733;DHT22;18312;51.486;7.144;2023-02-28T15:36:45;5.20;69.60
31733;DHT22;18312;51.486;7.144;2023-02-28T15:39:21;5.20;70.90
31733;DHT22;18312;51.486;7.144;2023-02-28T15:41:48;5.10;71.50
31733;DHT22;18312;51.486;7.144;2023-02-28T15:44:25;5.00;71.80
31733;DHT22;18312;51.486;7.144;2023-02-28T15:46:57;5.00;71.90
31733;DHT22;18312;51.486;7.144;2023-02-28T15:49:23;5.00;72.00
31733;DHT22;18312;51.486;7.144;2023-02-28T15:51:50;4.80;71.70
31733;DHT22;18312;51.486;7.144;2023-02-28T15:54:19;4.80;72.60
31733;DHT22;18312;51.486;7.144;2023-02-28T15:56:46;4.80;72.60
31733;DHT22;18312;51.486;7.144;2023-02-28T15:59:14;4.90;72.90
31733;DHT22;18312;51.486;7.144;2023-02-28T16:01:42;4.80;72.50
31733;DHT22;18312;51.486;7.144;2023-02-28T16:04:14;4.70;72.70
31733;DHT22;18312;51.486;7.144;2023-02-28T16:06:40;4.70;72.80
31733;DHT22;18312;51.486;7.144;2023-02-28T16:15:38;4.60;73.10
31733;DHT22;18312;51.486;7.144;2023-02-28T16:18:24;4.60;72.80
31733;DHT22;18312;51.486;7.144;2023-02-28T16:20:55;4.60;73.10
31733;DHT22;18312;51.486;7.144;2023-02-28T16:23:21;4.50;72.80
31733;DHT22;18312;51.486;7.144;2023-02-28T16:25:53;4.60;73.10
31733;DHT22;18312;51.486;7.144;2023-02-28T16:28:20;4.90;72.00
31733;DHT22;18312;51.486;7.144;2023-02-28T16:30:47;4.60;72.20
31733;DHT22;18312;51.486;7.144;2023-02-28T16:33:14;4.60;72.50
31733;DHT22;18312;51.486;7.144;2023-02-28T16:35:41;4.40;73.10
31733;DHT22;18312;51.486;7.144;2023-02-28T16:38:09;4.40;72.00
31733;DHT22;18312;51.486;7.144;2023-02-28T16:40:38;4.40;72.20
31733;DHT22;18312;51.486;7.144;2023-02-28T16:43:05;4.30;72.90
31733;DHT22;18312;51.486;7.144;2023-02-28T16:45:39;4.30;73.00
31733;DHT22;18312;51.486;7.144;2023-02-28T16:48:16;4.30;72.90
31733;DHT22;18312;51.486;7.144;2023-02-28T16:51:10;4.20;73.10
31733;DHT22;18312;51.486;7.144;2023-02-28T16:53:39;4.20;73.60
31733;DHT22;18312;51.486;7.144;2023-02-28T16:56:10;4.10;73.90
31733;DHT22;18312;51.486;7.144;2023-02-28T16:58:40;4.10;73.70
31733;DHT22;18312;51.486;7.144;2023-02-28T17:01:06;4.10;73.50
31733;DHT22;18312;51.486;7.144;2023-02-28T17:03:33;4.00;73.80
31733;DHT22;18312;51.486;7.144;2023-02-28T17:06:01;3.90;74.30
31733;DHT22;18312;51.486;7.144;2023-02-28T17:08:28;3.90;74.30
31733;DHT22;18312;51.486;7.144;2023-02-28T17:10:56;3.80;74.50
31733;DHT22;18312;51.486;7.144;2023-02-28T17:13:23;3.80;74.90
31733;DHT22;18312;51.486;7.144;2023-02-28T17:15:49;3.80;75.30
31733;DHT22;18312;51.486;7.144;2023-02-28T17:18:17;3.70;75.60
31733;DHT22;18312;51.486;7.144;2023-02-28T17:20:45;3.60;76.00
31733;DHT22;18312;51.486;7.144;2023-02-28T17:23:12;3.60;76.40
31733;DHT22;18312;51.486;7.144;2023-02-28T17:25:39;3.50;76.70
31733;DHT22;18312;51.486;7.144;2023-02-28T17:28:08;3.40;77.10
31733;DHT22;18312;51.486;7.144;2023-02-28T17:30:35;3.40;77.40
31733;DHT22;18312;51.486;7.144;2023-02-28T17:33:01;3.30;77.80